Aérodrome :
LOGIN :

S'inscrire | Disclaimer

   EN    FR    IT 

 










Légende :    VFR   VFR Marginal   IFR   IFR Intensif   IFR Très Intensif
Visi : 
Plafond : 
>= 8 km
>= 3000ft
5 à 8 km
1000 à 3000 ft
1500m à 5 km
500 à 1000 ft
800 à 1500m
200 à 500 ft
< 800m
< 200 ft
Symboles :   Orages  Brouillard  Fortes neiges  Fortes précipitations  Vent > 20 kt
SIGMETs :   Divers  Orages  Givrage  Turbulence  Onde Orograph.  Cendres Volcan.







- Altitude de l'aérodrome : 870 ft
- Code IATA : ETZ
- Voir les cartes d'approche


LFJL - Metz Nancy Lorraine

DERNIER METAR :
  • 270630Z AUTO 09007KT CAVOK 08/04 Q1013 NOSIG

METARs EXPIRÉS :
  • 270600Z AUTO 09006KT CAVOK 07/04 Q1013 NOSIG
  • 270530Z AUTO 11007KT CAVOK 05/04 Q1014 NOSIG
  • 270500Z AUTO 12009KT CAVOK 05/03 Q1014 NOSIG
  • 270430Z AUTO 11009KT CAVOK 05/03 Q1014 NOSIG
  • 270400Z AUTO 12005KT CAVOK 04/02 Q1015 NOSIG
  • 270330Z AUTO 13009KT CAVOK 04/02 Q1015 NOSIG

TAF TAF LFJL
Valide du 27 à 06h jusqu'au 28 à 06h UTC


270500Z 2706/2806 09007KT CAVOK
BECMG 2709/2712 15010KT
BECMG 2712/2715 21012KT
Pas de NOTAMs connus pour ce terrain.



MET'MAP, la Météo Aéronautique d'un coup d'oeil ! - Copyright ORBIFLY Décembre 2007 - Disclaimer

ORBIFLY MET'MAP TEAM :

Programmation & Développement : Alexandra Zaïnal
Conception & Développement : Baudouin d'Aumeries
Co-Programmation & Développement : Marc-Olivier Méhu
Soutien technique & logistique : Manuel Goepfert

Contact : metmap@orbifly.com




SOURCES & CREDITS :

   NOAA